»·PEaware :: UAL1399 KSAN-KLAX

UAL1399 :: KSAN-KLAX

FLIGHT INFORMATION

Flight Status: Arrived
Operator:
United Airlines
More flights by this operator :: More flights under this callsign
Pilot: David C. (16084)
Aircraft: SAAB 340
(SF34)
More flights by this aircraft type
Origin: KSAN San Diego Intl-Lindbergh
United States
Destination: KLAX Los Angeles Intl
United States
More flights between these airports :: More routes between these airports
Route: +CWARD2 SLI
File this flight plan on PilotEdge
Remarks: SANP4R
Altitude:
(Current/Filed)
8,000ft
Speed:
(Current/Filed)
275kts
Departed: 01-Oct-18 10:52 AM
Arrived: 01-Oct-18 11:20 AM
Distance/Time
Traveled:
94nm/0:28
Distance/Time
To Go:
Arrived

Flight Plot

Page will automatically refresh every two minutes.

Flight plan parsing failed; only flown route is shown


Map Options




Map Legend


Flown Route
Filed Route
Departure Airport
Arrival Airport
Navaid (VOR, NDB)
Fix

Horizontal Profiles

Position Reports

Time Latitude Longitude Heading Altitude Ground
Speed
01-Oct-18 10:23 32.733750 -117.203583 270 22ft 0kts
01-Oct-18 10:24 32.733750 -117.203583 270 22ft 0kts
01-Oct-18 10:25 32.733750 -117.203583 270 22ft 0kts
01-Oct-18 10:26 32.733750 -117.203583 270 22ft 0kts
01-Oct-18 10:27 32.733750 -117.203583 270 22ft 0kts
01-Oct-18 10:28 32.733750 -117.203583 270 22ft 0kts
01-Oct-18 10:29 32.733750 -117.203583 270 22ft 0kts
01-Oct-18 10:30 32.733750 -117.203583 270 22ft 0kts
01-Oct-18 10:31 32.733750 -117.203583 269 22ft 0kts
01-Oct-18 10:32 32.733750 -117.203583 269 22ft 0kts
01-Oct-18 10:33 32.733750 -117.203583 269 22ft 0kts
01-Oct-18 10:34 32.733750 -117.203583 269 22ft 0kts
01-Oct-18 10:35 32.733750 -117.203583 269 22ft 0kts
01-Oct-18 10:36 32.733750 -117.203583 269 22ft 0kts
01-Oct-18 10:37 32.733750 -117.203583 269 22ft 0kts
01-Oct-18 10:38 32.733750 -117.203583 269 22ft 0kts
01-Oct-18 10:39 32.733743 -117.203343 272 22ft 2kts
01-Oct-18 10:40 32.733727 -117.202790 270 22ft 0kts
01-Oct-18 10:41 32.733727 -117.202791 270 22ft 0kts
01-Oct-18 10:42 32.733937 -117.202843 22 22ft 0kts
01-Oct-18 10:43 32.734149 -117.202739 22 22ft 3kts
01-Oct-18 10:44 32.734325 -117.202654 22 22ft 3kts
01-Oct-18 10:45 32.734738 -117.198816 105 22ft 24kts
01-Oct-18 10:46 32.732777 -117.190668 105 22ft 26kts
01-Oct-18 10:47 32.730740 -117.182349 105 22ft 26kts
01-Oct-18 10:48 32.729505 -117.176701 75 22ft 0kts
01-Oct-18 10:49 32.729505 -117.176701 75 22ft 0kts
01-Oct-18 10:50 32.729505 -117.176701 75 22ft 0kts
01-Oct-18 10:51 32.729505 -117.176701 75 22ft 0kts
01-Oct-18 10:52 32.729505 -117.176701 75 22ft 0kts
01-Oct-18 10:53 32.729636 -117.176124 74 22ft 9kts
01-Oct-18 10:54 32.730605 -117.177414 286 22ft 56kts
01-Oct-18 10:55 32.746236 -117.221798 306 1707ft 182kts
01-Oct-18 10:56 32.774034 -117.271466 303 4168ft 187kts
01-Oct-18 10:57 32.803009 -117.323600 308 6181ft 193kts
01-Oct-18 10:58 32.836158 -117.375128 309 7901ft 202kts
01-Oct-18 10:59 32.875097 -117.435521 309 7995ft 249kts
01-Oct-18 11:00 32.918149 -117.502451 309 7995ft 258kts
01-Oct-18 11:01 32.961870 -117.570443 306 7999ft 260kts
01-Oct-18 11:02 33.006063 -117.639486 306 8001ft 262kts
01-Oct-18 11:03 33.050001 -117.708164 305 8001ft 261kts
01-Oct-18 11:04 33.101410 -117.767629 317 8001ft 261kts
01-Oct-18 11:05 33.153154 -117.820423 317 7999ft 259kts
01-Oct-18 11:06 33.212741 -117.866755 346 8008ft 262kts
01-Oct-18 11:07 33.283879 -117.884337 346 8011ft 261kts
01-Oct-18 11:08 33.354974 -117.902031 346 8005ft 261kts
01-Oct-18 11:09 33.424937 -117.924194 341 7995ft 260kts
01-Oct-18 11:10 33.493892 -117.949176 341 7990ft 259kts
01-Oct-18 11:11 33.562786 -117.974238 341 7990ft 259kts
01-Oct-18 11:12 33.631153 -117.999159 341 7981ft 261kts
01-Oct-18 11:13 33.697743 -118.023453 341 6594ft 232kts
01-Oct-18 11:14 33.755934 -118.044758 341 5974ft 216kts
01-Oct-18 11:15 33.799631 -118.091719 298 5971ft 217kts
01-Oct-18 11:16 33.829522 -118.154209 310 5969ft 216kts
01-Oct-18 11:17 33.872573 -118.194441 320 5065ft 207kts
01-Oct-18 11:18 33.915735 -118.237052 318 3100ft 205kts
01-Oct-18 11:19 33.944020 -118.289139 282 1898ft 166kts
01-Oct-18 11:20 33.941883 -118.338117 264 990ft 128kts
01-Oct-18 11:21 33.937599 -118.380103 264 246ft 126kts
01-Oct-18 11:22 33.935327 -118.403069 268 132ft 31kts
01-Oct-18 11:23 33.935868 -118.406066 287 132ft 0kts
01-Oct-18 11:24 33.935868 -118.406066 287 132ft 0kts
01-Oct-18 11:25 33.935940 -118.408270 285 132ft 14kts
01-Oct-18 11:26 33.938958 -118.406226 85 132ft 25kts
01-Oct-18 11:27 33.940110 -118.398398 21 132ft 17kts
01-Oct-18 11:28 33.941332 -118.397622 82 132ft 0kts

Navigation Log

Ident Type
Flight plan parsing failed, navigation log unavailable